TimeCST,TemperatureF,Dew PointF,Humidity,Sea Level PressureIn,VisibilityMPH,Wind Direction,Wind SpeedMPH,Gust SpeedMPH,PrecipitationIn,Events,Conditions,WindDirDegrees,DateUTC
12:33 AM,66.2,59.0,78,30.08,10.0,WNW,16.1,24.2,0.00,Rain-Thunderstorm,Light Thunderstorms and Rain,300,2012-11-27 06:33:00
12:39 AM,66.2,57.2,73,30.08,10.0,NW,13.8,29.9,0.00,Rain-Thunderstorm,Light Thunderstorms and Rain,320,2012-11-27 06:39:00
12:53 AM,62.1,57.9,86,30.07,4.0,WNW,8.1,19.6,0.06,Rain,Rain,300,2012-11-27 06:53:00
1:33 AM,60.8,57.2,88,30.05,10.0,Calm,Calm,-,0.01,Rain-Thunderstorm,Light Thunderstorms and Rain,0,2012-11-27 07:33:00
1:53 AM,60.1,57.0,90,30.04,10.0,Calm,Calm,-,0.01,Rain-Thunderstorm,Light Thunderstorms and Rain,0,2012-11-27 07:53:00
2:05 AM,60.8,57.2,88,30.05,10.0,SSE,4.6,-,0.00,Rain,Light Rain,160,2012-11-27 08:05:00
2:53 AM,59.0,57.0,93,30.07,10.0,NW,5.8,-,0.00,,Mostly Cloudy,320,2012-11-27 08:53:00
3:53 AM,60.1,57.9,93,30.06,10.0,NNE,11.5,-,N/A,,Scattered Clouds,30,2012-11-27 09:53:00
4:31 AM,60.8,59.0,94,30.10,10.0,NNE,10.4,18.4,N/A,,Mostly Cloudy,20,2012-11-27 10:31:00
4:51 AM,60.8,57.2,88,30.12,10.0,NNE,13.8,19.6,N/A,,Overcast,20,2012-11-27 10:51:00
4:53 AM,60.1,57.9,93,30.12,10.0,North,10.4,19.6,N/A,,Overcast,360,2012-11-27 10:53:00
5:53 AM,54.0,52.0,93,30.18,8.0,NNE,9.2,-,N/A,,Overcast,20,2012-11-27 11:53:00
6:53 AM,51.1,48.0,89,30.20,10.0,NNE,11.5,23.0,0.00,,Overcast,30,2012-11-27 12:53:00
7:05 AM,50.0,48.2,94,30.21,10.0,NNE,13.8,-,N/A,,Overcast,20,2012-11-27 13:05:00
7:53 AM,50.0,46.0,86,30.24,10.0,NNE,13.8,-,N/A,,Overcast,20,2012-11-27 13:53:00
8:04 AM,50.0,46.4,87,30.25,10.0,NNE,13.8,20.7,N/A,,Overcast,20,2012-11-27 14:04:00
8:53 AM,48.9,45.0,86,30.29,10.0,NNE,12.7,-,N/A,,Overcast,20,2012-11-27 14:53:00
9:53 AM,48.9,44.1,83,30.30,10.0,North,11.5,-,N/A,,Overcast,10,2012-11-27 15:53:00
10:37 AM,50.0,42.8,76,30.30,10.0,NNE,13.8,18.4,N/A,,Overcast,20,2012-11-27 16:37:00
10:46 AM,50.0,42.8,76,30.30,10.0,North,11.5,-,N/A,,Overcast,10,2012-11-27 16:46:00
10:53 AM,50.0,43.0,77,30.31,10.0,North,10.4,-,N/A,,Overcast,10,2012-11-27 16:53:00
11:02 AM,51.8,42.8,71,30.30,10.0,NNE,11.5,-,N/A,,Overcast,20,2012-11-27 17:02:00
11:25 AM,51.8,42.8,71,30.29,10.0,NNE,9.2,17.3,N/A,,Overcast,30,2012-11-27 17:25:00
11:32 AM,51.8,42.8,71,30.29,10.0,NNE,10.4,-,N/A,,Overcast,20,2012-11-27 17:32:00
11:53 AM,52.0,43.0,71,30.29,10.0,North,10.4,17.3,N/A,,Overcast,360,2012-11-27 17:53:00
12:53 PM,54.0,43.0,66,30.27,10.0,North,11.5,-,N/A,,Overcast,350,2012-11-27 18:53:00
1:48 PM,55.4,42.8,63,30.25,10.0,North,10.4,18.4,N/A,,Scattered Clouds,360,2012-11-27 19:48:00
1:53 PM,55.9,43.0,62,30.25,10.0,North,10.4,-,N/A,,Partly Cloudy,360,2012-11-27 19:53:00
2:53 PM,57.9,44.1,60,30.24,10.0,North,6.9,-,N/A,,Clear,350,2012-11-27 20:53:00
3:53 PM,59.0,43.0,55,30.25,10.0,North,9.2,-,N/A,,Clear,350,2012-11-27 21:53:00
4:53 PM,55.9,43.0,62,30.27,10.0,NNE,8.1,-,N/A,,Clear,20,2012-11-27 22:53:00
5:53 PM,52.0,43.0,71,30.29,10.0,NNE,3.5,-,N/A,,Clear,20,2012-11-27 23:53:00
6:53 PM,48.9,43.0,80,30.31,10.0,NNE,4.6,-,N/A,,Clear,30,2012-11-28 00:53:00
7:53 PM,48.0,42.1,80,30.34,10.0,NE,6.9,-,N/A,,Clear,40,2012-11-28 01:53:00
8:53 PM,46.9,39.9,77,30.33,10.0,NE,6.9,-,N/A,,Clear,40,2012-11-28 02:53:00
9:53 PM,46.0,39.9,79,30.34,10.0,NE,4.6,-,N/A,,Clear,40,2012-11-28 03:53:00
10:53 PM,44.1,39.0,82,30.35,10.0,ENE,3.5,-,N/A,,Clear,60,2012-11-28 04:53:00
11:53 PM,43.0,37.9,82,30.34,10.0,NE,5.8,-,N/A,,Clear,40,2012-11-28 05:53:00